createdAt,value
2018-01-03T00:00:04.114Z,784.19
2018-01-03T00:00:08.145Z,784.17
2018-01-03T00:00:12.161Z,784.2
2018-01-03T00:00:16.085Z,784.19
2018-01-03T00:00:19.791Z,784.19
2018-01-03T00:00:23.697Z,784.2
2018-01-03T00:00:27.482Z,784.21
2018-01-03T00:00:31.294Z,784.2
2018-01-03T00:00:35.102Z,784.21
2018-01-03T00:00:39.008Z,784.17
2018-01-03T00:00:42.819Z,784.17
2018-01-03T00:00:46.632Z,784.16
2018-01-03T00:00:50.435Z,784.17
2018-01-03T00:00:54.352Z,784.17
2018-01-03T00:00:58.366Z,784.21
2018-01-03T00:01:02.325Z,784.18
2018-01-03T00:01:06.449Z,784.19
2018-01-03T00:01:10.560Z,784.16
2018-01-03T00:01:14.460Z,784.17
2018-01-03T00:01:18.267Z,784.15
2018-01-03T00:01:22.476Z,784.14
2018-01-03T00:01:26.485Z,784.18
2018-01-03T00:01:30.291Z,784.17
2018-01-03T00:01:34.425Z,784.19
2018-01-03T00:01:38.334Z,784.18
2018-01-03T00:01:42.242Z,784.18
2018-01-03T00:01:46.158Z,784.18
2018-01-03T00:01:50.062Z,784.15
2018-01-03T00:01:53.868Z,784.2
2018-01-03T00:01:57.789Z,784.16
2018-01-03T00:02:01.911Z,784.17
2018-01-03T00:02:05.820Z,784.16
2018-01-03T00:02:09.852Z,784.18
2018-01-03T00:02:13.767Z,784.17
2018-01-03T00:02:17.874Z,784.17
2018-01-03T00:02:21.879Z,784.19
2018-01-03T00:02:25.579Z,784.18
2018-01-03T00:02:29.798Z,784.17
2018-01-03T00:02:33.806Z,784.19
2018-01-03T00:02:37.819Z,784.17
2018-01-03T00:02:41.827Z,784.17
2018-01-03T00:02:45.742Z,784.16
2018-01-03T00:02:49.654Z,784.16
2018-01-03T00:02:53.464Z,784.14
2018-01-03T00:02:57.148Z,784.16
2018-01-03T00:03:00.845Z,784.15
2018-01-03T00:03:04.853Z,784.15
2018-01-03T00:03:08.771Z,784.18
2018-01-03T00:03:12.681Z,784.15
2018-01-03T00:03:16.808Z,784.1
2018-01-03T00:03:20.733Z,784.1
2018-01-03T00:03:24.754Z,784.07
2018-01-03T00:03:28.766Z,784.08
2018-01-03T00:03:32.775Z,784.08
2018-01-03T00:03:36.589Z,784.13
2018-01-03T00:03:40.388Z,784.14
2018-01-03T00:03:44.512Z,784.1
2018-01-03T00:03:48.436Z,784.11
2018-01-03T00:03:52.355Z,784.1
2018-01-03T00:03:56.074Z,784.13
2018-01-03T00:03:59.889Z,784.08
2018-01-03T00:04:03.694Z,784.13
2018-01-03T00:04:07.594Z,784.13
2018-01-03T00:04:11.398Z,784.1
2018-01-03T00:04:15.309Z,784.09
2018-01-03T00:04:19.109Z,784.1
2018-01-03T00:04:23.129Z,784.12
2018-01-03T00:04:27.041Z,784.1
2018-01-03T00:04:30.755Z,784.11
2018-01-03T00:04:34.562Z,784.11
2018-01-03T00:04:38.573Z,784.12
2018-01-03T00:04:42.583Z,784.09
2018-01-03T00:04:46.504Z,784.12
2018-01-03T00:04:50.315Z,784.1
2018-01-03T00:04:54.233Z,784.11
2018-01-03T00:04:58.147Z,784.08
2018-01-03T00:05:01.960Z,784.12
2018-01-03T00:05:05.855Z,784.09
2018-01-03T00:05:09.777Z,784.1
2018-01-03T00:05:13.592Z,784.08
2018-01-03T00:05:17.498Z,784.09
2018-01-03T00:05:21.515Z,784.06
2018-01-03T00:05:25.520Z,784.07
2018-01-03T00:05:29.428Z,784.08
2018-01-03T00:05:33.216Z,784.11
2018-01-03T00:05:37.227Z,784.07
2018-01-03T00:05:41.330Z,784.06
2018-01-03T00:05:45.354Z,784.05
2018-01-03T00:05:49.056Z,784.02
2018-01-03T00:05:52.971Z,784.06
2018-01-03T00:05:56.886Z,784.04
2018-01-03T00:06:00.591Z,784.05
2018-01-03T00:06:04.607Z,784.07
2018-01-03T00:06:08.638Z,784.05
2018-01-03T00:06:12.650Z,784.02
2018-01-03T00:06:16.459Z,784.03
2018-01-03T00:06:20.273Z,784.02
2018-01-03T00:06:24.183Z,784.02
2018-01-03T00:06:28.197Z,784.03
2018-01-03T00:06:31.987Z,784.04
2018-01-03T00:06:36.023Z,784.01
2018-01-03T00:06:40.046Z,784.03
2018-01-03T00:06:44.060Z,783.98
2018-01-03T00:06:47.976Z,784.03
2018-01-03T00:06:51.674Z,784.01
2018-01-03T00:06:55.714Z,784.01
2018-01-03T00:06:59.618Z,783.98
2018-01-03T00:07:03.938Z,783.98
2018-01-03T00:07:07.846Z,784
2018-01-03T00:07:11.959Z,783.94
2018-01-03T00:07:15.651Z,783.95
2018-01-03T00:07:19.554Z,783.98
2018-01-03T00:07:23.464Z,783.99
2018-01-03T00:07:27.483Z,783.99
2018-01-03T00:07:31.388Z,783.97
2018-01-03T00:07:35.409Z,783.97
2018-01-03T00:07:39.429Z,783.98
2018-01-03T00:07:43.350Z,784
2018-01-03T00:07:47.470Z,784.02
2018-01-03T00:07:51.583Z,783.98
2018-01-03T00:07:55.387Z,783.97
2018-01-03T00:07:59.415Z,784
2018-01-03T00:08:03.721Z,783.97
2018-01-03T00:08:07.642Z,783.9
2018-01-03T00:08:11.657Z,783.93
2018-01-03T00:08:15.795Z,783.93
2018-01-03T00:08:19.499Z,783.94
2018-01-03T00:08:23.408Z,783.94
2018-01-03T00:08:27.206Z,783.93
2018-01-03T00:08:31.224Z,783.93
2018-01-03T00:08:35.220Z,783.91
2018-01-03T00:08:39.332Z,783.9
2018-01-03T00:08:43.138Z,783.96
2018-01-03T00:08:46.835Z,783.98
2018-01-03T00:08:50.736Z,783.91
2018-01-03T00:08:54.551Z,783.9
2018-01-03T00:08:58.668Z,783.9
2018-01-03T00:09:02.474Z,783.92
2018-01-03T00:09:06.587Z,783.91
2018-01-03T00:09:10.588Z,783.92
2018-01-03T00:09:14.512Z,783.9
2018-01-03T00:09:18.213Z,783.93
2018-01-03T00:09:22.227Z,783.88
2018-01-03T00:09:25.933Z,783.93
2018-01-03T00:09:29.732Z,783.92
2018-01-03T00:09:33.632Z,783.96
2018-01-03T00:09:37.464Z,783.95
2018-01-03T00:09:41.482Z,783.92
2018-01-03T00:09:45.280Z,783.92
2018-01-03T00:09:49.193Z,783.93
2018-01-03T00:09:52.995Z,783.94
2018-01-03T00:09:56.922Z,783.92
2018-01-03T00:10:00.837Z,783.92
2018-01-03T00:10:05.063Z,783.97
2018-01-03T00:10:09.032Z,783.93
2018-01-03T00:10:13.146Z,783.96
2018-01-03T00:10:17.170Z,783.93
2018-01-03T00:10:21.194Z,783.95
2018-01-03T00:10:25.119Z,783.94
2018-01-03T00:10:28.934Z,783.94
2018-01-03T00:10:32.952Z,783.94
2018-01-03T00:10:36.969Z,783.95
2018-01-03T00:10:40.893Z,783.92
2018-01-03T00:10:44.593Z,783.93
2018-01-03T00:10:48.503Z,783.93
2018-01-03T00:10:52.528Z,783.93
2018-01-03T00:10:56.332Z,783.93
2018-01-03T00:11:00.366Z,783.96
2018-01-03T00:11:04.644Z,783.92
2018-01-03T00:11:08.768Z,783.94
2018-01-03T00:11:12.685Z,783.94
2018-01-03T00:11:16.599Z,783.94
2018-01-03T00:11:20.517Z,783.91
2018-01-03T00:11:24.324Z,783.97
2018-01-03T00:11:28.334Z,783.95
2018-01-03T00:11:32.018Z,783.95
2018-01-03T00:11:36.132Z,783.93
2018-01-03T00:11:39.924Z,783.97
2018-01-03T00:11:43.834Z,783.96
2018-01-03T00:11:47.635Z,783.91
2018-01-03T00:11:51.739Z,783.91
2018-01-03T00:11:55.758Z,783.94
2018-01-03T00:11:59.778Z,783.92
2018-01-03T00:12:03.852Z,783.89
2018-01-03T00:12:07.653Z,783.92
2018-01-03T00:12:11.559Z,783.93
2018-01-03T00:12:15.773Z,783.93
2018-01-03T00:12:19.794Z,783.95
2018-01-03T00:12:23.707Z,783.92
2018-01-03T00:12:27.734Z,783.91
2018-01-03T00:12:31.636Z,783.92
2018-01-03T00:12:35.448Z,783.92
2018-01-03T00:12:39.360Z,783.93
2018-01-03T00:12:43.365Z,783.93
2018-01-03T00:12:47.287Z,783.93
2018-01-03T00:12:51.191Z,783.96
2018-01-03T00:12:55.310Z,783.95
2018-01-03T00:12:59.114Z,783.94
2018-01-03T00:13:02.939Z,783.91
2018-01-03T00:13:06.749Z,783.89
2018-01-03T00:13:10.765Z,783.93
2018-01-03T00:13:14.783Z,783.92
2018-01-03T00:13:18.768Z,783.95
2018-01-03T00:13:22.823Z,783.95
2018-01-03T00:13:26.953Z,783.9
2018-01-03T00:13:30.859Z,783.95
2018-01-03T00:13:34.657Z,783.94
2018-01-03T00:13:38.484Z,783.92
2018-01-03T00:13:42.400Z,783.91
2018-01-03T00:13:46.534Z,783.94
2018-01-03T00:13:50.449Z,783.94
2018-01-03T00:13:54.363Z,783.96
2018-01-03T00:13:58.276Z,783.93
2018-01-03T00:14:02.434Z,783.95
2018-01-03T00:14:06.494Z,783.94
2018-01-03T00:14:10.416Z,783.93
2018-01-03T00:14:14.326Z,783.93
2018-01-03T00:14:18.436Z,783.95
2018-01-03T00:14:22.343Z,783.93
2018-01-03T00:14:26.252Z,783.92
2018-01-03T00:14:30.154Z,783.95
2018-01-03T00:14:34.173Z,783.92
2018-01-03T00:14:38.184Z,783.94
2018-01-03T00:14:42.090Z,783.94
2018-01-03T00:14:46.196Z,783.95
2018-01-03T00:14:49.990Z,783.93
2018-01-03T00:14:54.008Z,783.92
2018-01-03T00:14:57.922Z,783.97
2018-01-03T00:15:01.842Z,783.96
2018-01-03T00:15:05.952Z,783.97
2018-01-03T00:15:09.936Z,783.94
2018-01-03T00:15:13.750Z,783.97
2018-01-03T00:15:17.455Z,783.96
2018-01-03T00:15:21.256Z,783.94
2018-01-03T00:15:25.069Z,783.95
2018-01-03T00:15:28.875Z,783.95
2018-01-03T00:15:32.798Z,783.97
2018-01-03T00:15:36.604Z,783.97
2018-01-03T00:15:40.621Z,783.95
2018-01-03T00:15:44.631Z,783.95
2018-01-03T00:15:48.330Z,783.95
2018-01-03T00:15:52.351Z,783.98
2018-01-03T00:15:56.253Z,783.96
2018-01-03T00:16:00.375Z,783.96
2018-01-03T00:16:04.284Z,783.97
2018-01-03T00:16:08.082Z,783.93
2018-01-03T00:16:12.219Z,783.96
2018-01-03T00:16:16.243Z,783.97
2018-01-03T00:16:20.047Z,783.97
2018-01-03T00:16:24.053Z,783.94
2018-01-03T00:16:27.848Z,783.97
2018-01-03T00:16:31.662Z,783.94
2018-01-03T00:16:35.789Z,783.94
2018-01-03T00:16:39.792Z,783.97
2018-01-03T00:16:43.690Z,783.98
2018-01-03T00:16:47.615Z,783.94
2018-01-03T00:16:51.533Z,783.92
2018-01-03T00:16:55.666Z,783.97
2018-01-03T00:16:59.467Z,783.97
2018-01-03T00:17:03.457Z,783.95
2018-01-03T00:17:07.478Z,783.95
2018-01-03T00:17:11.270Z,783.98
2018-01-03T00:17:15.499Z,783.93
2018-01-03T00:17:19.460Z,783.96
2018-01-03T00:17:23.590Z,783.97
2018-01-03T00:17:27.406Z,783.9
2018-01-03T00:17:31.435Z,783.93
2018-01-03T00:17:35.348Z,783.96
2018-01-03T00:17:39.056Z,783.97
2018-01-03T00:17:43.080Z,783.96
2018-01-03T00:17:47.125Z,783.98
2018-01-03T00:17:51.142Z,783.95
2018-01-03T00:17:54.960Z,783.97
2018-01-03T00:17:58.875Z,783.96
2018-01-03T00:18:03.009Z,783.93
2018-01-03T00:18:06.927Z,783.96
2018-01-03T00:18:10.925Z,783.95
2018-01-03T00:18:14.854Z,783.97
2018-01-03T00:18:18.756Z,783.97
2018-01-03T00:18:22.866Z,783.99
2018-01-03T00:18:26.565Z,783.94
2018-01-03T00:18:30.634Z,784.01
2018-01-03T00:18:34.442Z,784
2018-01-03T00:18:38.375Z,783.94
2018-01-03T00:18:42.388Z,783.95
2018-01-03T00:18:46.205Z,783.93
2018-01-03T00:18:50.113Z,783.96
2018-01-03T00:18:54.034Z,783.96
2018-01-03T00:18:57.842Z,783.95
2018-01-03T00:19:01.859Z,783.97
2018-01-03T00:19:06.142Z,783.98
2018-01-03T00:19:10.042Z,783.99
2018-01-03T00:19:13.742Z,783.99
2018-01-03T00:19:17.865Z,784
2018-01-03T00:19:22.191Z,783.99
2018-01-03T00:19:26.088Z,783.94
2018-01-03T00:19:29.785Z,783.98
2018-01-03T00:19:33.692Z,784.03
2018-01-03T00:19:37.804Z,783.97
2018-01-03T00:19:41.707Z,783.99
2018-01-03T00:19:45.615Z,784.01
2018-01-03T00:19:49.411Z,784.02
2018-01-03T00:19:53.323Z,784
2018-01-03T00:19:57.229Z,784
2018-01-03T00:20:01.243Z,784.01
2018-01-03T00:20:05.632Z,784.01
2018-01-03T00:20:09.450Z,783.99
2018-01-03T00:20:13.484Z,784
2018-01-03T00:20:17.292Z,784.01
2018-01-03T00:20:21.097Z,783.99
2018-01-03T00:20:24.999Z,784
2018-01-03T00:20:28.811Z,783.96
2018-01-03T00:20:32.726Z,783.98
2018-01-03T00:20:36.525Z,783.97
2018-01-03T00:20:40.446Z,783.98
2018-01-03T00:20:44.346Z,784.03
2018-01-03T00:20:48.153Z,784
2018-01-03T00:20:52.227Z,784.02
2018-01-03T00:20:56.040Z,784.04
2018-01-03T00:20:59.952Z,784.03
2018-01-03T00:21:03.857Z,784.07
2018-01-03T00:21:07.995Z,784.02
2018-01-03T00:21:11.909Z,784.03
2018-01-03T00:21:15.599Z,784.05
2018-01-03T00:21:19.514Z,784.02
2018-01-03T00:21:23.525Z,784.04
2018-01-03T00:21:27.443Z,783.98
2018-01-03T00:21:31.368Z,783.98
2018-01-03T00:21:35.290Z,783.99
2018-01-03T00:21:39.315Z,783.98
2018-01-03T00:21:43.235Z,783.98
2018-01-03T00:21:47.257Z,783.99
2018-01-03T00:21:51.046Z,783.99
2018-01-03T00:21:55.056Z,784.02
2018-01-03T00:21:58.868Z,783.98
2018-01-03T00:22:02.901Z,784.04
2018-01-03T00:22:06.833Z,784.03
2018-01-03T00:22:10.945Z,784.04
2018-01-03T00:22:14.732Z,784.06
2018-01-03T00:22:18.742Z,784.03
2018-01-03T00:22:22.540Z,784.02
2018-01-03T00:22:26.555Z,784.06
2018-01-03T00:22:30.563Z,784.05
2018-01-03T00:22:34.472Z,784.06
2018-01-03T00:22:38.537Z,784.02
2018-01-03T00:22:42.455Z,784.05
2018-01-03T00:22:46.153Z,784.06
2018-01-03T00:22:50.182Z,784.07
2018-01-03T00:22:54.101Z,784.05
2018-01-03T00:22:57.898Z,784.05
2018-01-03T00:23:01.608Z,784.06
2018-01-03T00:23:05.316Z,784.02
2018-01-03T00:23:09.227Z,784.08
2018-01-03T00:23:13.134Z,784.03
2018-01-03T00:23:17.140Z,784.04
2018-01-03T00:23:20.937Z,784.05
2018-01-03T00:23:24.740Z,784.05
2018-01-03T00:23:28.548Z,784.02
2018-01-03T00:23:32.257Z,784.05
2018-01-03T00:23:36.161Z,784.03
2018-01-03T00:23:40.082Z,784.02
2018-01-03T00:23:43.895Z,784.06
2018-01-03T00:23:47.809Z,784.08
2018-01-03T00:23:51.727Z,784.09
2018-01-03T00:23:55.742Z,784.09
2018-01-03T00:23:59.569Z,784.07
2018-01-03T00:24:03.666Z,784.07
2018-01-03T00:24:07.464Z,784.08
2018-01-03T00:24:11.491Z,784.05
2018-01-03T00:24:15.181Z,784.07
2018-01-03T00:24:19.208Z,784.08
2018-01-03T00:24:23.229Z,784.08
2018-01-03T00:24:27.137Z,784.09
2018-01-03T00:24:31.049Z,784.1
2018-01-03T00:24:34.737Z,784.09
2018-01-03T00:24:38.751Z,784.09
2018-01-03T00:24:42.461Z,784.09
2018-01-03T00:24:46.488Z,784.09
2018-01-03T00:24:50.298Z,784.11
2018-01-03T00:24:54.301Z,784.11
2018-01-03T00:24:58.093Z,784.13
2018-01-03T00:25:01.895Z,784.14
2018-01-03T00:25:06.029Z,784.15
2018-01-03T00:25:10.175Z,784.16
2018-01-03T00:25:13.999Z,784.09
2018-01-03T00:25:17.924Z,784.11
2018-01-03T00:25:21.717Z,784.13
2018-01-03T00:25:25.751Z,784.14
2018-01-03T00:25:29.573Z,784.12
2018-01-03T00:25:33.382Z,784.15
2018-01-03T00:25:37.090Z,784.16
2018-01-03T00:25:40.904Z,784.16
2018-01-03T00:25:45.031Z,784.13
2018-01-03T00:25:49.142Z,784.1
2018-01-03T00:25:53.045Z,784.12
2018-01-03T00:25:56.852Z,784.14
2018-01-03T00:26:00.766Z,784.15
2018-01-03T00:26:04.679Z,784.12
2018-01-03T00:26:08.698Z,784.13
2018-01-03T00:26:12.601Z,784.14
2018-01-03T00:26:16.405Z,784.19
2018-01-03T00:26:20.533Z,784.17
2018-01-03T00:26:24.352Z,784.19
2018-01-03T00:26:28.258Z,784.18
2018-01-03T00:26:32.294Z,784.18
2018-01-03T00:26:36.307Z,784.2
2018-01-03T00:26:40.103Z,784.17
2018-01-03T00:26:44.105Z,784.21
2018-01-03T00:26:48.223Z,784.19
2018-01-03T00:26:52.138Z,784.21
2018-01-03T00:26:56.044Z,784.2
2018-01-03T00:26:59.757Z,784.17
2018-01-03T00:27:03.854Z,784.15
2018-01-03T00:27:08.070Z,784.24
2018-01-03T00:27:11.865Z,784.21
2018-01-03T00:27:15.871Z,784.22
2018-01-03T00:27:19.976Z,784.2
2018-01-03T00:27:24.005Z,784.22
2018-01-03T00:27:27.912Z,784.22
2018-01-03T00:27:32.023Z,784.2
2018-01-03T00:27:36.031Z,784.2
2018-01-03T00:27:39.719Z,784.16
2018-01-03T00:27:43.537Z,784.21
2018-01-03T00:27:47.472Z,784.19
2018-01-03T00:27:51.503Z,784.27
2018-01-03T00:27:55.414Z,784.21
2018-01-03T00:27:59.419Z,784.23
2018-01-03T00:28:03.348Z,784.2
2018-01-03T00:28:07.257Z,784.25
2018-01-03T00:28:11.368Z,784.23
2018-01-03T00:28:15.383Z,784.24
2018-01-03T00:28:19.202Z,784.29
2018-01-03T00:28:23.119Z,784.26
2018-01-03T00:28:26.922Z,784.28
2018-01-03T00:28:30.623Z,784.22
2018-01-03T00:28:34.539Z,784.28
2018-01-03T00:28:38.464Z,784.25
2018-01-03T00:28:42.475Z,784.28
2018-01-03T00:28:46.539Z,784.3
2018-01-03T00:28:50.436Z,784.29
2018-01-03T00:28:54.454Z,784.28
2018-01-03T00:28:58.486Z,784.29
2018-01-03T00:29:02.395Z,784.31
2018-01-03T00:29:06.620Z,784.27
2018-01-03T00:29:10.634Z,784.29
2018-01-03T00:29:14.550Z,784.3
2018-01-03T00:29:18.465Z,784.31
2018-01-03T00:29:22.594Z,784.32
2018-01-03T00:29:26.619Z,784.33
2018-01-03T00:29:30.534Z,784.36
2018-01-03T00:29:34.446Z,784.33
2018-01-03T00:29:38.243Z,784.36
2018-01-03T00:29:42.276Z,784.35
2018-01-03T00:29:46.174Z,784.34
2018-01-03T00:29:50.090Z,784.34
2018-01-03T00:29:54.217Z,784.35
2018-01-03T00:29:58.121Z,784.36
2018-01-03T00:30:02.396Z,784.4
2018-01-03T00:30:06.210Z,784.34
2018-01-03T00:30:10.134Z,784.34
2018-01-03T00:30:13.941Z,784.35
2018-01-03T00:30:17.865Z,784.34
2018-01-03T00:30:21.767Z,784.36
2018-01-03T00:30:25.778Z,784.38
2018-01-03T00:30:29.571Z,784.36
2018-01-03T00:30:33.590Z,784.39
2018-01-03T00:30:37.283Z,784.34
2018-01-03T00:30:41.281Z,784.38
2018-01-03T00:30:45.081Z,784.37
2018-01-03T00:30:48.897Z,784.34
2018-01-03T00:30:53.013Z,784.37
2018-01-03T00:30:57.030Z,784.37
2018-01-03T00:31:01.052Z,784.37
2018-01-03T00:31:05.257Z,784.37
2018-01-03T00:31:09.196Z,784.33
2018-01-03T00:31:13.009Z,784.39
2018-01-03T00:31:16.930Z,784.41
2018-01-03T00:31:20.843Z,784.35
2018-01-03T00:31:24.755Z,784.37
2018-01-03T00:31:28.768Z,784.39
2018-01-03T00:31:32.795Z,784.39
2018-01-03T00:31:36.816Z,784.4
2018-01-03T00:31:40.721Z,784.37
2018-01-03T00:31:44.833Z,784.4
2018-01-03T00:31:48.537Z,784.39
2018-01-03T00:31:52.468Z,784.38
2018-01-03T00:31:56.593Z,784.41
2018-01-03T00:32:00.396Z,784.38
2018-01-03T00:32:04.714Z,784.39
2018-01-03T00:32:08.426Z,784.41
2018-01-03T00:32:12.239Z,784.4
2018-01-03T00:32:16.059Z,784.39
2018-01-03T00:32:20.186Z,784.38
2018-01-03T00:32:24.100Z,784.38
2018-01-03T00:32:27.791Z,784.4
2018-01-03T00:32:31.734Z,784.39
2018-01-03T00:32:35.523Z,784.41
2018-01-03T00:32:39.329Z,784.4
2018-01-03T00:32:43.241Z,784.41
2018-01-03T00:32:47.356Z,784.41
2018-01-03T00:32:51.490Z,784.42
2018-01-03T00:32:55.511Z,784.38
2018-01-03T00:32:59.317Z,784.4
2018-01-03T00:33:03.164Z,784.43
2018-01-03T00:33:07.174Z,784.41
2018-01-03T00:33:10.979Z,784.42
2018-01-03T00:33:14.989Z,784.43
2018-01-03T00:33:18.890Z,784.42
2018-01-03T00:33:22.811Z,784.4
2018-01-03T00:33:26.621Z,784.43
2018-01-03T00:33:30.856Z,784.43
2018-01-03T00:33:34.879Z,784.44
2018-01-03T00:33:38.895Z,784.43
2018-01-03T00:33:42.687Z,784.42
2018-01-03T00:33:46.486Z,784.41
2018-01-03T00:33:50.293Z,784.42
2018-01-03T00:33:54.108Z,784.4
2018-01-03T00:33:58.136Z,784.38
2018-01-03T00:34:02.501Z,784.38
2018-01-03T00:34:06.509Z,784.37
2018-01-03T00:34:10.213Z,784.4
2018-01-03T00:34:14.130Z,784.4
2018-01-03T00:34:17.839Z,784.42
2018-01-03T00:34:21.654Z,784.43
2018-01-03T00:34:25.558Z,784.42
2018-01-03T00:34:29.353Z,784.45
2018-01-03T00:34:33.476Z,784.43
2018-01-03T00:34:37.166Z,784.45
2018-01-03T00:34:41.063Z,784.44
2018-01-03T00:34:44.878Z,784.4
2018-01-03T00:34:48.885Z,784.42
2018-01-03T00:34:53.000Z,784.41
2018-01-03T00:34:57.026Z,784.41
2018-01-03T00:35:01.249Z,784.43
2018-01-03T00:35:05.258Z,784.43
2018-01-03T00:35:09.275Z,784.41
2018-01-03T00:35:13.310Z,784.43
2018-01-03T00:35:17.226Z,784.43
2018-01-03T00:35:20.918Z,784.43
2018-01-03T00:35:24.934Z,784.4
2018-01-03T00:35:28.743Z,784.43
2018-01-03T00:35:32.454Z,784.44
2018-01-03T00:35:36.157Z,784.43
2018-01-03T00:35:40.065Z,784.46
2018-01-03T00:35:43.974Z,784.47
2018-01-03T00:35:47.888Z,784.45
2018-01-03T00:35:52.052Z,784.45
2018-01-03T00:35:56.169Z,784.43
2018-01-03T00:36:00.394Z,784.42
2018-01-03T00:36:04.450Z,784.46
2018-01-03T00:36:08.485Z,784.44
2018-01-03T00:36:12.388Z,784.42
2018-01-03T00:36:16.388Z,784.4
2018-01-03T00:36:20.602Z,784.4
2018-01-03T00:36:24.514Z,784.45
2018-01-03T00:36:28.638Z,784.48
2018-01-03T00:36:32.542Z,784.44
2018-01-03T00:36:36.564Z,784.47
2018-01-03T00:36:40.362Z,784.48
2018-01-03T00:36:44.262Z,784.49
2018-01-03T00:36:48.278Z,784.48
2018-01-03T00:36:52.205Z,784.49
2018-01-03T00:36:56.120Z,784.46
2018-01-03T00:37:00.025Z,784.48
2018-01-03T00:37:03.832Z,784.52
2018-01-03T00:37:07.743Z,784.5
2018-01-03T00:37:11.645Z,784.48
2018-01-03T00:37:15.554Z,784.47
2018-01-03T00:37:19.355Z,784.46
2018-01-03T00:37:23.366Z,784.49
2018-01-03T00:37:27.383Z,784.51
2018-01-03T00:37:31.500Z,784.49
2018-01-03T00:37:35.197Z,784.5
2018-01-03T00:37:38.984Z,784.47
2018-01-03T00:37:42.777Z,784.47
2018-01-03T00:37:46.578Z,784.48
2018-01-03T00:37:50.489Z,784.48
2018-01-03T00:37:54.408Z,784.47
2018-01-03T00:37:58.230Z,784.48
2018-01-03T00:38:02.248Z,784.45
2018-01-03T00:38:06.260Z,784.45
2018-01-03T00:38:10.163Z,784.48
2018-01-03T00:38:14.284Z,784.51
2018-01-03T00:38:18.193Z,784.51
2018-01-03T00:38:21.889Z,784.51
2018-01-03T00:38:25.905Z,784.49
2018-01-03T00:38:29.821Z,784.49
2018-01-03T00:38:33.728Z,784.48
2018-01-03T00:38:37.634Z,784.52
2018-01-03T00:38:41.448Z,784.49
2018-01-03T00:38:45.243Z,784.48
2018-01-03T00:38:49.053Z,784.51
2018-01-03T00:38:52.971Z,784.51
2018-01-03T00:38:57.033Z,784.49
2018-01-03T00:39:00.929Z,784.51
2018-01-03T00:39:04.936Z,784.46
2018-01-03T00:39:08.780Z,784.51
2018-01-03T00:39:12.440Z,784.51
2018-01-03T00:39:16.569Z,784.49
2018-01-03T00:39:20.381Z,784.52
2018-01-03T00:39:24.077Z,784.5
2018-01-03T00:39:27.875Z,784.52
2018-01-03T00:39:31.668Z,784.49
2018-01-03T00:39:35.371Z,784.52
2018-01-03T00:39:39.187Z,784.51
2018-01-03T00:39:43.003Z,784.49
2018-01-03T00:39:46.916Z,784.52
2018-01-03T00:39:50.826Z,784.51
2018-01-03T00:39:54.640Z,784.51
2018-01-03T00:39:58.548Z,784.5
2018-01-03T00:40:02.507Z,784.48
2018-01-03T00:40:06.408Z,784.47
2018-01-03T00:40:10.528Z,784.49
2018-01-03T00:40:14.480Z,784.49
2018-01-03T00:40:18.721Z,784.49
2018-01-03T00:40:22.524Z,784.48
2018-01-03T00:40:26.445Z,784.52
2018-01-03T00:40:30.466Z,784.49
2018-01-03T00:40:34.282Z,784.49
2018-01-03T00:40:38.096Z,784.49
2018-01-03T00:40:42.346Z,784.54
2018-01-03T00:40:46.373Z,784.48
2018-01-03T00:40:50.502Z,784.52
2018-01-03T00:40:54.621Z,784.5
2018-01-03T00:40:58.427Z,784.49
2018-01-03T00:41:02.537Z,784.51
2018-01-03T00:41:06.450Z,784.5
2018-01-03T00:41:10.151Z,784.49
2018-01-03T00:41:14.170Z,784.44
2018-01-03T00:41:18.184Z,784.51
2018-01-03T00:41:22.180Z,784.51
2018-01-03T00:41:26.188Z,784.48
2018-01-03T00:41:29.885Z,784.5
2018-01-03T00:41:33.810Z,784.53
2018-01-03T00:41:37.823Z,784.5
2018-01-03T00:41:41.839Z,784.5
2018-01-03T00:41:45.647Z,784.49
2018-01-03T00:41:49.870Z,784.53
2018-01-03T00:41:53.677Z,784.5
2018-01-03T00:41:57.694Z,784.5
2018-01-03T00:42:01.500Z,784.49
2018-01-03T00:42:05.786Z,784.51
2018-01-03T00:42:09.705Z,784.48
2018-01-03T00:42:13.719Z,784.44
2018-01-03T00:42:17.736Z,784.44
2018-01-03T00:42:21.527Z,784.5
2018-01-03T00:42:25.351Z,784.49
2018-01-03T00:42:29.269Z,784.5
2018-01-03T00:42:33.379Z,784.51
2018-01-03T00:42:37.100Z,784.5
2018-01-03T00:42:41.103Z,784.45
2018-01-03T00:42:45.004Z,784.45
2018-01-03T00:42:48.803Z,784.49
2018-01-03T00:42:52.607Z,784.48
2018-01-03T00:42:56.403Z,784.47
2018-01-03T00:43:00.110Z,784.48
2018-01-03T00:43:04.126Z,784.45
2018-01-03T00:43:07.944Z,784.43
2018-01-03T00:43:11.845Z,784.43
2018-01-03T00:43:15.740Z,784.46
2018-01-03T00:43:19.667Z,784.45
2018-01-03T00:43:23.840Z,784.44
2018-01-03T00:43:27.975Z,784.48
2018-01-03T00:43:31.871Z,784.45
2018-01-03T00:43:35.994Z,784.43
2018-01-03T00:43:39.792Z,784.45
2018-01-03T00:43:43.592Z,784.46
2018-01-03T00:43:47.393Z,784.44
2018-01-03T00:43:51.463Z,784.46
2018-01-03T00:43:55.485Z,784.45
2018-01-03T00:43:59.384Z,784.46
2018-01-03T00:44:03.713Z,784.45
2018-01-03T00:44:07.837Z,784.44
2018-01-03T00:44:11.756Z,784.45
2018-01-03T00:44:15.776Z,784.43
2018-01-03T00:44:19.594Z,784.43
2018-01-03T00:44:23.493Z,784.44
2018-01-03T00:44:27.401Z,784.42
2018-01-03T00:44:31.208Z,784.45
2018-01-03T00:44:35.125Z,784.44
2018-01-03T00:44:39.038Z,784.42
2018-01-03T00:44:42.836Z,784.37
2018-01-03T00:44:46.740Z,784.37
2018-01-03T00:44:50.773Z,784.37
2018-01-03T00:44:54.799Z,784.42
2018-01-03T00:44:58.697Z,784.39
2018-01-03T00:45:02.726Z,784.39
2018-01-03T00:45:06.755Z,784.41
2018-01-03T00:45:10.770Z,784.42
2018-01-03T00:45:14.570Z,784.4
2018-01-03T00:45:18.278Z,784.42
2018-01-03T00:45:22.091Z,784.42
2018-01-03T00:45:25.784Z,784.45
2018-01-03T00:45:29.810Z,784.42
2018-01-03T00:45:33.517Z,784.43
2018-01-03T00:45:37.218Z,784.44
2018-01-03T00:45:41.027Z,784.41
2018-01-03T00:45:44.944Z,784.41
2018-01-03T00:45:48.972Z,784.39
2018-01-03T00:45:52.786Z,784.39
2018-01-03T00:45:56.603Z,784.43
2018-01-03T00:46:00.509Z,784.39
2018-01-03T00:46:04.253Z,784.4
2018-01-03T00:46:08.160Z,784.37
2018-01-03T00:46:11.847Z,784.41
2018-01-03T00:46:15.874Z,784.38
2018-01-03T00:46:19.561Z,784.39
2018-01-03T00:46:23.581Z,784.39
2018-01-03T00:46:27.498Z,784.39
2018-01-03T00:46:31.306Z,784.37
2018-01-03T00:46:35.017Z,784.36
2018-01-03T00:46:38.924Z,784.36
2018-01-03T00:46:42.742Z,784.37
2018-01-03T00:46:46.660Z,784.35
2018-01-03T00:46:50.460Z,784.35
2018-01-03T00:46:54.149Z,784.39
2018-01-03T00:46:58.062Z,784.38
2018-01-03T00:47:02.052Z,784.39
2018-01-03T00:47:05.860Z,784.39
2018-01-03T00:47:10.030Z,784.38
2018-01-03T00:47:14.029Z,784.38
2018-01-03T00:47:17.853Z,784.39
2018-01-03T00:47:21.649Z,784.38
2018-01-03T00:47:25.564Z,784.38
2018-01-03T00:47:29.478Z,784.39
2018-01-03T00:47:33.505Z,784.39
2018-01-03T00:47:37.328Z,784.37
2018-01-03T00:47:41.346Z,784.38
2018-01-03T00:47:45.374Z,784.39
2018-01-03T00:47:49.179Z,784.42
2018-01-03T00:47:52.996Z,784.36
2018-01-03T00:47:57.009Z,784.35
2018-01-03T00:48:01.154Z,784.34
2018-01-03T00:48:05.218Z,784.37
2018-01-03T00:48:09.130Z,784.34
2018-01-03T00:48:13.137Z,784.31
2018-01-03T00:48:16.950Z,784.36
2018-01-03T00:48:20.847Z,784.34
2018-01-03T00:48:24.658Z,784.4
2018-01-03T00:48:28.561Z,784.36
2018-01-03T00:48:32.360Z,784.38
2018-01-03T00:48:36.264Z,784.33
2018-01-03T00:48:40.273Z,784.36
2018-01-03T00:48:43.973Z,784.33
2018-01-03T00:48:47.772Z,784.38
2018-01-03T00:48:51.687Z,784.36
2018-01-03T00:48:55.915Z,784.38
2018-01-03T00:48:59.829Z,784.32
2018-01-03T00:49:04.059Z,784.31
2018-01-03T00:49:08.085Z,784.36
2018-01-03T00:49:12.097Z,784.36
2018-01-03T00:49:15.908Z,784.35